sensor_id;sensor_type;location;lat;lon;timestamp;P1;durP1;ratioP1;P2;durP2;ratioP2
11829;SDS011;5972;42.134;24.718;2022-08-19T00:00:08;6.60;;;5.38;;
11829;SDS011;5972;42.134;24.718;2022-08-19T00:02:36;7.60;;;5.47;;
11829;SDS011;5972;42.134;24.718;2022-08-19T00:05:03;7.50;;;5.75;;
11829;SDS011;5972;42.134;24.718;2022-08-19T00:07:31;8.23;;;5.70;;
11829;SDS011;5972;42.134;24.718;2022-08-19T00:09:57;5.97;;;5.47;;
11829;SDS011;5972;42.134;24.718;2022-08-19T00:12:26;5.50;;;4.82;;
11829;SDS011;5972;42.134;24.718;2022-08-19T00:14:53;6.45;;;5.35;;
11829;SDS011;5972;42.134;24.718;2022-08-19T00:17:20;7.90;;;5.03;;
11829;SDS011;5972;42.134;24.718;2022-08-19T00:19:47;8.43;;;4.80;;
11829;SDS011;5972;42.134;24.718;2022-08-19T00:22:14;5.95;;;5.10;;
11829;SDS011;5972;42.134;24.718;2022-08-19T00:24:43;6.57;;;4.90;;
11829;SDS011;5972;42.134;24.718;2022-08-19T00:27:10;5.80;;;5.20;;
11829;SDS011;5972;42.134;24.718;2022-08-19T00:29:39;5.20;;;4.68;;
11829;SDS011;5972;42.134;24.718;2022-08-19T00:32:06;6.55;;;5.20;;
11829;SDS011;5972;42.134;24.718;2022-08-19T00:34:32;8.23;;;5.72;;
11829;SDS011;5972;42.134;24.718;2022-08-19T00:37:00;6.43;;;5.82;;
11829;SDS011;5972;42.134;24.718;2022-08-19T00:39:27;6.63;;;6.05;;
11829;SDS011;5972;42.134;24.718;2022-08-19T00:41:54;7.28;;;6.00;;
11829;SDS011;5972;42.134;24.718;2022-08-19T00:44:23;7.47;;;6.05;;
11829;SDS011;5972;42.134;24.718;2022-08-19T00:46:54;6.35;;;5.85;;
11829;SDS011;5972;42.134;24.718;2022-08-19T00:49:24;6.57;;;5.55;;
11829;SDS011;5972;42.134;24.718;2022-08-19T00:51:55;7.03;;;6.18;;
11829;SDS011;5972;42.134;24.718;2022-08-19T00:54:26;7.63;;;5.80;;
11829;SDS011;5972;42.134;24.718;2022-08-19T00:56:53;7.03;;;6.40;;
11829;SDS011;5972;42.134;24.718;2022-08-19T00:59:20;8.57;;;6.38;;
11829;SDS011;5972;42.134;24.718;2022-08-19T01:01:47;9.23;;;6.53;;
11829;SDS011;5972;42.134;24.718;2022-08-19T01:04:15;8.02;;;6.18;;
11829;SDS011;5972;42.134;24.718;2022-08-19T01:06:42;12.52;;;6.97;;
11829;SDS011;5972;42.134;24.718;2022-08-19T01:09:09;7.70;;;6.28;;
11829;SDS011;5972;42.134;24.718;2022-08-19T01:11:38;13.00;;;6.65;;
11829;SDS011;5972;42.134;24.718;2022-08-19T01:14:10;10.68;;;6.90;;
11829;SDS011;5972;42.134;24.718;2022-08-19T01:16:37;7.88;;;6.32;;
11829;SDS011;5972;42.134;24.718;2022-08-19T01:19:09;10.63;;;6.82;;
11829;SDS011;5972;42.134;24.718;2022-08-19T01:21:41;8.48;;;6.47;;
11829;SDS011;5972;42.134;24.718;2022-08-19T01:24:15;7.35;;;6.65;;
11829;SDS011;5972;42.134;24.718;2022-08-19T01:26:42;9.75;;;6.18;;
11829;SDS011;5972;42.134;24.718;2022-08-19T01:29:10;10.13;;;6.55;;
11829;SDS011;5972;42.134;24.718;2022-08-19T01:31:38;9.43;;;6.45;;
11829;SDS011;5972;42.134;24.718;2022-08-19T01:34:06;7.90;;;6.28;;
11829;SDS011;5972;42.134;24.718;2022-08-19T01:36:34;12.85;;;6.45;;
11829;SDS011;5972;42.134;24.718;2022-08-19T01:39:04;10.00;;;6.50;;
11829;SDS011;5972;42.134;24.718;2022-08-19T01:41:35;8.50;;;6.43;;
11829;SDS011;5972;42.134;24.718;2022-08-19T01:44:02;10.00;;;7.00;;
11829;SDS011;5972;42.134;24.718;2022-08-19T01:46:30;9.15;;;6.45;;
11829;SDS011;5972;42.134;24.718;2022-08-19T01:48:58;12.60;;;6.22;;
11829;SDS011;5972;42.134;24.718;2022-08-19T01:51:25;10.25;;;6.10;;
11829;SDS011;5972;42.134;24.718;2022-08-19T01:53:53;7.25;;;6.25;;
11829;SDS011;5972;42.134;24.718;2022-08-19T01:56:20;7.75;;;6.20;;
11829;SDS011;5972;42.134;24.718;2022-08-19T01:58:49;8.77;;;6.45;;
11829;SDS011;5972;42.134;24.718;2022-08-19T02:01:19;7.88;;;6.28;;
11829;SDS011;5972;42.134;24.718;2022-08-19T02:03:46;10.10;;;6.57;;
11829;SDS011;5972;42.134;24.718;2022-08-19T02:06:13;7.15;;;5.60;;
11829;SDS011;5972;42.134;24.718;2022-08-19T02:08:42;8.48;;;6.53;;
11829;SDS011;5972;42.134;24.718;2022-08-19T02:11:17;12.23;;;6.10;;
11829;SDS011;5972;42.134;24.718;2022-08-19T02:13:45;12.90;;;7.78;;
11829;SDS011;5972;42.134;24.718;2022-08-19T02:16:14;8.38;;;6.20;;
11829;SDS011;5972;42.134;24.718;2022-08-19T02:18:40;7.75;;;6.10;;
11829;SDS011;5972;42.134;24.718;2022-08-19T02:21:07;13.27;;;6.35;;
11829;SDS011;5972;42.134;24.718;2022-08-19T02:23:34;12.95;;;6.70;;
11829;SDS011;5972;42.134;24.718;2022-08-19T02:26:01;10.23;;;6.85;;
11829;SDS011;5972;42.134;24.718;2022-08-19T02:28:28;9.30;;;6.32;;
11829;SDS011;5972;42.134;24.718;2022-08-19T02:30:55;7.28;;;6.22;;
11829;SDS011;5972;42.134;24.718;2022-08-19T02:33:23;10.35;;;6.63;;
11829;SDS011;5972;42.134;24.718;2022-08-19T02:35:50;9.93;;;6.40;;
11829;SDS011;5972;42.134;24.718;2022-08-19T02:38:16;8.23;;;6.22;;
11829;SDS011;5972;42.134;24.718;2022-08-19T02:40:52;14.80;;;6.78;;
11829;SDS011;5972;42.134;24.718;2022-08-19T02:43:20;12.35;;;6.65;;
11829;SDS011;5972;42.134;24.718;2022-08-19T02:45:49;7.93;;;7.13;;
11829;SDS011;5972;42.134;24.718;2022-08-19T02:48:16;11.52;;;6.90;;
11829;SDS011;5972;42.134;24.718;2022-08-19T02:50:45;7.88;;;6.45;;
11829;SDS011;5972;42.134;24.718;2022-08-19T02:53:13;8.50;;;6.90;;
11829;SDS011;5972;42.134;24.718;2022-08-19T02:55:43;8.15;;;7.20;;
11829;SDS011;5972;42.134;24.718;2022-08-19T02:58:11;11.57;;;6.95;;
11829;SDS011;5972;42.134;24.718;2022-08-19T03:00:42;12.43;;;7.90;;
11829;SDS011;5972;42.134;24.718;2022-08-19T03:03:10;8.35;;;7.20;;
11829;SDS011;5972;42.134;24.718;2022-08-19T03:05:37;11.93;;;7.75;;
11829;SDS011;5972;42.134;24.718;2022-08-19T03:08:05;11.50;;;8.07;;
11829;SDS011;5972;42.134;24.718;2022-08-19T03:10:32;10.35;;;7.22;;
11829;SDS011;5972;42.134;24.718;2022-08-19T03:12:59;9.45;;;8.50;;
11829;SDS011;5972;42.134;24.718;2022-08-19T03:15:26;17.02;;;7.93;;
11829;SDS011;5972;42.134;24.718;2022-08-19T03:17:53;9.73;;;7.45;;
11829;SDS011;5972;42.134;24.718;2022-08-19T03:20:20;9.93;;;7.97;;
11829;SDS011;5972;42.134;24.718;2022-08-19T03:22:46;14.65;;;8.15;;
11829;SDS011;5972;42.134;24.718;2022-08-19T03:25:15;13.73;;;7.63;;
11829;SDS011;5972;42.134;24.718;2022-08-19T03:27:42;11.77;;;8.77;;
11829;SDS011;5972;42.134;24.718;2022-08-19T03:30:09;13.32;;;7.88;;
11829;SDS011;5972;42.134;24.718;2022-08-19T03:32:37;9.75;;;7.95;;
11829;SDS011;5972;42.134;24.718;2022-08-19T03:35:04;11.43;;;7.45;;
11829;SDS011;5972;42.134;24.718;2022-08-19T03:37:31;8.73;;;7.45;;
11829;SDS011;5972;42.134;24.718;2022-08-19T03:39:58;8.95;;;7.90;;
11829;SDS011;5972;42.134;24.718;2022-08-19T03:42:26;14.35;;;8.57;;
11829;SDS011;5972;42.134;24.718;2022-08-19T03:44:53;31.67;;;9.40;;
11829;SDS011;5972;42.134;24.718;2022-08-19T03:47:20;14.05;;;8.88;;
11829;SDS011;5972;42.134;24.718;2022-08-19T03:49:47;16.58;;;8.70;;
11829;SDS011;5972;42.134;24.718;2022-08-19T03:52:14;17.52;;;8.45;;
11829;SDS011;5972;42.134;24.718;2022-08-19T03:54:41;26.40;;;9.07;;
11829;SDS011;5972;42.134;24.718;2022-08-19T03:57:07;17.35;;;9.20;;
11829;SDS011;5972;42.134;24.718;2022-08-19T03:59:37;16.70;;;8.85;;
11829;SDS011;5972;42.134;24.718;2022-08-19T04:02:06;18.77;;;9.02;;
11829;SDS011;5972;42.134;24.718;2022-08-19T04:04:35;19.45;;;9.27;;
11829;SDS011;5972;42.134;24.718;2022-08-19T04:07:03;24.00;;;9.65;;
11829;SDS011;5972;42.134;24.718;2022-08-19T04:09:30;21.02;;;9.40;;
11829;SDS011;5972;42.134;24.718;2022-08-19T04:11:59;15.90;;;8.75;;
11829;SDS011;5972;42.134;24.718;2022-08-19T04:14:27;12.23;;;8.77;;
11829;SDS011;5972;42.134;24.718;2022-08-19T04:16:58;18.00;;;8.75;;
11829;SDS011;5972;42.134;24.718;2022-08-19T04:19:26;17.92;;;8.20;;
11829;SDS011;5972;42.134;24.718;2022-08-19T04:21:55;10.68;;;8.43;;
11829;SDS011;5972;42.134;24.718;2022-08-19T04:24:22;13.48;;;8.38;;
11829;SDS011;5972;42.134;24.718;2022-08-19T04:26:49;15.40;;;8.40;;
11829;SDS011;5972;42.134;24.718;2022-08-19T04:29:17;11.75;;;7.75;;
11829;SDS011;5972;42.134;24.718;2022-08-19T04:31:47;23.05;;;9.27;;
11829;SDS011;5972;42.134;24.718;2022-08-19T04:34:17;32.63;;;10.13;;
11829;SDS011;5972;42.134;24.718;2022-08-19T04:36:47;25.10;;;8.27;;
11829;SDS011;5972;42.134;24.718;2022-08-19T04:39:16;13.57;;;7.50;;
11829;SDS011;5972;42.134;24.718;2022-08-19T04:41:46;20.15;;;8.07;;
11829;SDS011;5972;42.134;24.718;2022-08-19T04:44:30;19.40;;;8.60;;
11829;SDS011;5972;42.134;24.718;2022-08-19T04:46:58;13.57;;;7.95;;
11829;SDS011;5972;42.134;24.718;2022-08-19T04:49:26;12.52;;;7.35;;
11829;SDS011;5972;42.134;24.718;2022-08-19T04:51:55;12.68;;;7.72;;
11829;SDS011;5972;42.134;24.718;2022-08-19T04:54:22;13.63;;;7.22;;
11829;SDS011;5972;42.134;24.718;2022-08-19T04:56:51;13.82;;;7.35;;
11829;SDS011;5972;42.134;24.718;2022-08-19T04:59:19;15.13;;;8.00;;
11829;SDS011;5972;42.134;24.718;2022-08-19T05:01:47;16.65;;;7.65;;
11829;SDS011;5972;42.134;24.718;2022-08-19T05:04:15;13.88;;;7.18;;
11829;SDS011;5972;42.134;24.718;2022-08-19T05:06:45;13.93;;;7.00;;
11829;SDS011;5972;42.134;24.718;2022-08-19T05:09:13;10.65;;;6.85;;
11829;SDS011;5972;42.134;24.718;2022-08-19T05:11:41;12.30;;;6.30;;
11829;SDS011;5972;42.134;24.718;2022-08-19T05:14:09;15.95;;;6.57;;
11829;SDS011;5972;42.134;24.718;2022-08-19T05:16:37;14.07;;;6.50;;
11829;SDS011;5972;42.134;24.718;2022-08-19T05:19:04;10.38;;;6.65;;
11829;SDS011;5972;42.134;24.718;2022-08-19T05:21:50;14.73;;;6.72;;
11829;SDS011;5972;42.134;24.718;2022-08-19T05:24:35;24.15;;;6.85;;
11829;SDS011;5972;42.134;24.718;2022-08-19T05:27:04;10.45;;;6.68;;
11829;SDS011;5972;42.134;24.718;2022-08-19T05:29:32;12.00;;;7.47;;
11829;SDS011;5972;42.134;24.718;2022-08-19T05:32:00;13.70;;;6.03;;
11829;SDS011;5972;42.134;24.718;2022-08-19T05:34:30;11.57;;;6.35;;
11829;SDS011;5972;42.134;24.718;2022-08-19T05:37:00;6.90;;;5.68;;
11829;SDS011;5972;42.134;24.718;2022-08-19T05:39:30;12.20;;;5.05;;
11829;SDS011;5972;42.134;24.718;2022-08-19T05:41:59;8.57;;;5.55;;
11829;SDS011;5972;42.134;24.718;2022-08-19T05:44:29;6.30;;;5.70;;
11829;SDS011;5972;42.134;24.718;2022-08-19T05:46:57;8.27;;;5.25;;
11829;SDS011;5972;42.134;24.718;2022-08-19T05:49:24;12.65;;;5.55;;
11829;SDS011;5972;42.134;24.718;2022-08-19T05:51:52;15.07;;;6.13;;
11829;SDS011;5972;42.134;24.718;2022-08-19T05:54:23;11.75;;;6.18;;
11829;SDS011;5972;42.134;24.718;2022-08-19T05:56:50;15.43;;;5.82;;
11829;SDS011;5972;42.134;24.718;2022-08-19T05:59:19;13.85;;;6.25;;
11829;SDS011;5972;42.134;24.718;2022-08-19T06:01:47;12.23;;;5.97;;
11829;SDS011;5972;42.134;24.718;2022-08-19T06:04:16;12.27;;;6.45;;
11829;SDS011;5972;42.134;24.718;2022-08-19T06:06:44;12.07;;;5.88;;
11829;SDS011;5972;42.134;24.718;2022-08-19T06:09:11;8.70;;;5.35;;
11829;SDS011;5972;42.134;24.718;2022-08-19T06:11:41;13.07;;;5.97;;
11829;SDS011;5972;42.134;24.718;2022-08-19T06:14:10;13.73;;;6.03;;
11829;SDS011;5972;42.134;24.718;2022-08-19T06:16:39;9.13;;;5.38;;
11829;SDS011;5972;42.134;24.718;2022-08-19T06:19:09;8.20;;;5.50;;
11829;SDS011;5972;42.134;24.718;2022-08-19T06:21:38;10.60;;;5.50;;
11829;SDS011;5972;42.134;24.718;2022-08-19T06:24:09;7.65;;;5.40;;
11829;SDS011;5972;42.134;24.718;2022-08-19T06:26:39;9.13;;;5.55;;
11829;SDS011;5972;42.134;24.718;2022-08-19T06:29:10;6.22;;;5.50;;
11829;SDS011;5972;42.134;24.718;2022-08-19T06:31:40;10.68;;;5.40;;
11829;SDS011;5972;42.134;24.718;2022-08-19T06:34:08;8.93;;;5.57;;
11829;SDS011;5972;42.134;24.718;2022-08-19T06:36:36;8.25;;;5.45;;
11829;SDS011;5972;42.134;24.718;2022-08-19T06:39:06;8.20;;;5.75;;
11829;SDS011;5972;42.134;24.718;2022-08-19T06:41:34;5.65;;;5.15;;
11829;SDS011;5972;42.134;24.718;2022-08-19T06:44:04;13.57;;;6.32;;
11829;SDS011;5972;42.134;24.718;2022-08-19T06:46:31;16.42;;;5.70;;
11829;SDS011;5972;42.134;24.718;2022-08-19T06:48:59;14.13;;;5.93;;
11829;SDS011;5972;42.134;24.718;2022-08-19T06:51:26;9.73;;;5.78;;
11829;SDS011;5972;42.134;24.718;2022-08-19T06:53:54;12.15;;;5.93;;
11829;SDS011;5972;42.134;24.718;2022-08-19T06:56:23;10.43;;;5.53;;
11829;SDS011;5972;42.134;24.718;2022-08-19T06:58:56;12.00;;;5.93;;
11829;SDS011;5972;42.134;24.718;2022-08-19T07:01:24;7.78;;;5.53;;
11829;SDS011;5972;42.134;24.718;2022-08-19T07:03:51;7.50;;;5.75;;
11829;SDS011;5972;42.134;24.718;2022-08-19T07:06:18;9.98;;;5.65;;
11829;SDS011;5972;42.134;24.718;2022-08-19T07:08:45;8.30;;;6.05;;
11829;SDS011;5972;42.134;24.718;2022-08-19T07:11:14;11.45;;;5.50;;
11829;SDS011;5972;42.134;24.718;2022-08-19T07:13:43;11.25;;;5.25;;
11829;SDS011;5972;42.134;24.718;2022-08-19T07:16:11;16.92;;;5.60;;
11829;SDS011;5972;42.134;24.718;2022-08-19T07:18:41;11.77;;;5.60;;
11829;SDS011;5972;42.134;24.718;2022-08-19T07:21:10;7.40;;;5.63;;
11829;SDS011;5972;42.134;24.718;2022-08-19T07:23:38;11.40;;;5.20;;
11829;SDS011;5972;42.134;24.718;2022-08-19T07:26:06;15.38;;;5.10;;
11829;SDS011;5972;42.134;24.718;2022-08-19T07:28:34;9.48;;;4.93;;
11829;SDS011;5972;42.134;24.718;2022-08-19T07:31:04;12.63;;;4.95;;
11829;SDS011;5972;42.134;24.718;2022-08-19T07:33:31;7.53;;;4.57;;
11829;SDS011;5972;42.134;24.718;2022-08-19T07:36:03;9.73;;;4.88;;
11829;SDS011;5972;42.134;24.718;2022-08-19T07:38:31;10.40;;;4.45;;
11829;SDS011;5972;42.134;24.718;2022-08-19T07:40:58;10.05;;;5.05;;
11829;SDS011;5972;42.134;24.718;2022-08-19T07:43:25;10.93;;;4.93;;
11829;SDS011;5972;42.134;24.718;2022-08-19T07:45:53;12.98;;;4.95;;
11829;SDS011;5972;42.134;24.718;2022-08-19T07:48:21;9.63;;;4.90;;
11829;SDS011;5972;42.134;24.718;2022-08-19T07:50:50;6.15;;;4.68;;
11829;SDS011;5972;42.134;24.718;2022-08-19T07:53:19;8.85;;;4.45;;
11829;SDS011;5972;42.134;24.718;2022-08-19T07:55:46;5.47;;;4.97;;
11829;SDS011;5972;42.134;24.718;2022-08-19T07:58:23;10.40;;;4.68;;
11829;SDS011;5972;42.134;24.718;2022-08-19T08:00:50;7.07;;;4.60;;
11829;SDS011;5972;42.134;24.718;2022-08-19T08:03:18;6.70;;;4.78;;
11829;SDS011;5972;42.134;24.718;2022-08-19T08:06:07;6.75;;;4.78;;
11829;SDS011;5972;42.134;24.718;2022-08-19T08:08:52;5.75;;;5.00;;
11829;SDS011;5972;42.134;24.718;2022-08-19T08:11:37;10.10;;;5.05;;
11829;SDS011;5972;42.134;24.718;2022-08-19T08:14:05;7.85;;;4.53;;
11829;SDS011;5972;42.134;24.718;2022-08-19T08:16:33;5.93;;;4.70;;
11829;SDS011;5972;42.134;24.718;2022-08-19T08:19:02;8.13;;;4.80;;
11829;SDS011;5972;42.134;24.718;2022-08-19T08:21:30;9.00;;;5.10;;
11829;SDS011;5972;42.134;24.718;2022-08-19T08:23:58;5.50;;;4.85;;
11829;SDS011;5972;42.134;24.718;2022-08-19T08:26:25;10.38;;;4.93;;
11829;SDS011;5972;42.134;24.718;2022-08-19T08:28:52;7.07;;;4.90;;
11829;SDS011;5972;42.134;24.718;2022-08-19T08:31:20;11.90;;;5.40;;
11829;SDS011;5972;42.134;24.718;2022-08-19T08:33:47;7.63;;;4.57;;
11829;SDS011;5972;42.134;24.718;2022-08-19T08:36:14;12.90;;;5.50;;
11829;SDS011;5972;42.134;24.718;2022-08-19T08:38:41;9.70;;;4.70;;
11829;SDS011;5972;42.134;24.718;2022-08-19T08:41:13;5.68;;;5.00;;
11829;SDS011;5972;42.134;24.718;2022-08-19T08:43:49;5.35;;;4.93;;
11829;SDS011;5972;42.134;24.718;2022-08-19T08:46:19;9.90;;;4.65;;
11829;SDS011;5972;42.134;24.718;2022-08-19T08:48:52;8.55;;;4.40;;
11829;SDS011;5972;42.134;24.718;2022-08-19T08:51:22;4.85;;;4.50;;
11829;SDS011;5972;42.134;24.718;2022-08-19T08:53:55;5.38;;;4.85;;
11829;SDS011;5972;42.134;24.718;2022-08-19T08:56:24;10.98;;;4.75;;
11829;SDS011;5972;42.134;24.718;2022-08-19T08:59:03;6.88;;;4.80;;
11829;SDS011;5972;42.134;24.718;2022-08-19T09:01:35;9.38;;;5.18;;
11829;SDS011;5972;42.134;24.718;2022-08-19T09:04:03;5.47;;;4.68;;
11829;SDS011;5972;42.134;24.718;2022-08-19T09:06:34;5.65;;;4.40;;
11829;SDS011;5972;42.134;24.718;2022-08-19T09:09:09;8.45;;;4.68;;
11829;SDS011;5972;42.134;24.718;2022-08-19T09:11:49;7.40;;;4.88;;
11829;SDS011;5972;42.134;24.718;2022-08-19T09:14:28;5.63;;;4.13;;
11829;SDS011;5972;42.134;24.718;2022-08-19T09:17:06;4.32;;;4.00;;
11829;SDS011;5972;42.134;24.718;2022-08-19T09:19:34;4.88;;;4.20;;
11829;SDS011;5972;42.134;24.718;2022-08-19T09:22:01;5.63;;;4.15;;
11829;SDS011;5972;42.134;24.718;2022-08-19T09:24:28;6.10;;;4.30;;
11829;SDS011;5972;42.134;24.718;2022-08-19T09:26:56;4.90;;;3.97;;
11829;SDS011;5972;42.134;24.718;2022-08-19T09:29:23;8.65;;;4.15;;
11829;SDS011;5972;42.134;24.718;2022-08-19T09:31:50;7.15;;;4.38;;
11829;SDS011;5972;42.134;24.718;2022-08-19T09:34:17;7.85;;;4.63;;
11829;SDS011;5972;42.134;24.718;2022-08-19T09:36:45;5.32;;;4.25;;
11829;SDS011;5972;42.134;24.718;2022-08-19T09:39:11;6.90;;;3.90;;
11829;SDS011;5972;42.134;24.718;2022-08-19T09:41:38;7.20;;;4.43;;
11829;SDS011;5972;42.134;24.718;2022-08-19T09:44:06;8.00;;;4.43;;
11829;SDS011;5972;42.134;24.718;2022-08-19T09:46:33;6.65;;;4.60;;
11829;SDS011;5972;42.134;24.718;2022-08-19T09:49:01;4.40;;;4.00;;
11829;SDS011;5972;42.134;24.718;2022-08-19T09:51:30;6.75;;;4.47;;
11829;SDS011;5972;42.134;24.718;2022-08-19T09:53:58;5.10;;;4.20;;
11829;SDS011;5972;42.134;24.718;2022-08-19T09:56:26;7.65;;;4.50;;
11829;SDS011;5972;42.134;24.718;2022-08-19T09:58:53;4.57;;;4.18;;
11829;SDS011;5972;42.134;24.718;2022-08-19T10:01:23;4.88;;;3.83;;
11829;SDS011;5972;42.134;24.718;2022-08-19T10:03:53;5.03;;;4.28;;
11829;SDS011;5972;42.134;24.718;2022-08-19T10:06:23;7.40;;;4.20;;
11829;SDS011;5972;42.134;24.718;2022-08-19T10:08:54;6.03;;;4.40;;
11829;SDS011;5972;42.134;24.718;2022-08-19T10:11:21;5.60;;;4.18;;
11829;SDS011;5972;42.134;24.718;2022-08-19T10:13:48;7.63;;;4.15;;
11829;SDS011;5972;42.134;24.718;2022-08-19T10:16:17;5.82;;;4.15;;
11829;SDS011;5972;42.134;24.718;2022-08-19T10:18:48;8.43;;;4.32;;
11829;SDS011;5972;42.134;24.718;2022-08-19T10:21:16;6.60;;;4.20;;
11829;SDS011;5972;42.134;24.718;2022-08-19T10:23:45;6.43;;;4.13;;
11829;SDS011;5972;42.134;24.718;2022-08-19T10:26:15;5.88;;;4.28;;
11829;SDS011;5972;42.134;24.718;2022-08-19T10:28:44;5.05;;;4.03;;
11829;SDS011;5972;42.134;24.718;2022-08-19T10:31:15;4.10;;;3.80;;
11829;SDS011;5972;42.134;24.718;2022-08-19T10:33:44;8.15;;;3.88;;
11829;SDS011;5972;42.134;24.718;2022-08-19T10:36:15;4.57;;;3.85;;
11829;SDS011;5972;42.134;24.718;2022-08-19T10:38:44;10.57;;;4.18;;
11829;SDS011;5972;42.134;24.718;2022-08-19T10:41:13;6.60;;;4.03;;
11829;SDS011;5972;42.134;24.718;2022-08-19T10:43:41;6.82;;;4.60;;
11829;SDS011;5972;42.134;24.718;2022-08-19T10:46:10;5.85;;;3.90;;
11829;SDS011;5972;42.134;24.718;2022-08-19T10:48:39;4.60;;;4.03;;
11829;SDS011;5972;42.134;24.718;2022-08-19T10:51:06;4.75;;;3.83;;
11829;SDS011;5972;42.134;24.718;2022-08-19T10:53:52;5.50;;;4.07;;
11829;SDS011;5972;42.134;24.718;2022-08-19T10:56:18;7.18;;;4.30;;
11829;SDS011;5972;42.134;24.718;2022-08-19T10:59:03;4.63;;;4.20;;
11829;SDS011;5972;42.134;24.718;2022-08-19T11:01:30;7.45;;;4.10;;
11829;SDS011;5972;42.134;24.718;2022-08-19T11:03:59;6.45;;;4.00;;
11829;SDS011;5972;42.134;24.718;2022-08-19T11:06:26;4.50;;;4.10;;
11829;SDS011;5972;42.134;24.718;2022-08-19T11:08:55;6.80;;;3.75;;
11829;SDS011;5972;42.134;24.718;2022-08-19T11:11:22;5.38;;;4.22;;
11829;SDS011;5972;42.134;24.718;2022-08-19T11:13:49;4.28;;;3.88;;
11829;SDS011;5972;42.134;24.718;2022-08-19T11:16:17;5.82;;;3.85;;
11829;SDS011;5972;42.134;24.718;2022-08-19T11:18:47;7.43;;;4.15;;
11829;SDS011;5972;42.134;24.718;2022-08-19T11:21:17;10.02;;;4.40;;
11829;SDS011;5972;42.134;24.718;2022-08-19T11:23:45;7.55;;;4.20;;
11829;SDS011;5972;42.134;24.718;2022-08-19T11:26:15;6.18;;;3.85;;
11829;SDS011;5972;42.134;24.718;2022-08-19T11:28:43;5.50;;;3.78;;
11829;SDS011;5972;42.134;24.718;2022-08-19T11:31:11;9.40;;;3.70;;
11829;SDS011;5972;42.134;24.718;2022-08-19T11:33:38;9.45;;;4.00;;
11829;SDS011;5972;42.134;24.718;2022-08-19T11:36:06;5.43;;;3.90;;
11829;SDS011;5972;42.134;24.718;2022-08-19T11:38:33;5.43;;;3.63;;
11829;SDS011;5972;42.134;24.718;2022-08-19T11:41:05;4.57;;;3.40;;
11829;SDS011;5972;42.134;24.718;2022-08-19T11:43:34;4.38;;;3.80;;
11829;SDS011;5972;42.134;24.718;2022-08-19T11:46:03;6.78;;;3.75;;
11829;SDS011;5972;42.134;24.718;2022-08-19T11:48:31;7.13;;;3.80;;
11829;SDS011;5972;42.134;24.718;2022-08-19T11:50:58;8.77;;;3.88;;
11829;SDS011;5972;42.134;24.718;2022-08-19T11:53:25;6.53;;;3.55;;
11829;SDS011;5972;42.134;24.718;2022-08-19T11:55:52;3.78;;;3.40;;
11829;SDS011;5972;42.134;24.718;2022-08-19T11:58:21;6.28;;;3.95;;
11829;SDS011;5972;42.134;24.718;2022-08-19T12:00:51;5.32;;;3.70;;
11829;SDS011;5972;42.134;24.718;2022-08-19T12:03:18;8.50;;;4.13;;
11829;SDS011;5972;42.134;24.718;2022-08-19T12:05:45;4.53;;;3.55;;
11829;SDS011;5972;42.134;24.718;2022-08-19T12:08:12;5.53;;;3.63;;
11829;SDS011;5972;42.134;24.718;2022-08-19T12:10:40;4.13;;;3.65;;
11829;SDS011;5972;42.134;24.718;2022-08-19T12:13:08;7.90;;;4.03;;
11829;SDS011;5972;42.134;24.718;2022-08-19T12:15:36;4.32;;;3.90;;
11829;SDS011;5972;42.134;24.718;2022-08-19T12:18:06;4.55;;;3.50;;
11829;SDS011;5972;42.134;24.718;2022-08-19T12:20:34;9.30;;;4.03;;
11829;SDS011;5972;42.134;24.718;2022-08-19T12:23:02;4.68;;;3.83;;
11829;SDS011;5972;42.134;24.718;2022-08-19T12:25:29;5.40;;;3.50;;
11829;SDS011;5972;42.134;24.718;2022-08-19T12:27:56;4.25;;;3.83;;
11829;SDS011;5972;42.134;24.718;2022-08-19T12:30:24;5.35;;;3.75;;
11829;SDS011;5972;42.134;24.718;2022-08-19T12:32:51;6.28;;;4.18;;
11829;SDS011;5972;42.134;24.718;2022-08-19T12:35:19;5.82;;;3.88;;
11829;SDS011;5972;42.134;24.718;2022-08-19T12:37:47;6.38;;;3.88;;
11829;SDS011;5972;42.134;24.718;2022-08-19T12:40:15;4.25;;;3.95;;
11829;SDS011;5972;42.134;24.718;2022-08-19T12:42:44;5.15;;;3.83;;
11829;SDS011;5972;42.134;24.718;2022-08-19T12:45:11;4.20;;;3.80;;
11829;SDS011;5972;42.134;24.718;2022-08-19T12:47:39;3.92;;;3.63;;
11829;SDS011;5972;42.134;24.718;2022-08-19T12:50:07;4.50;;;4.10;;
11829;SDS011;5972;42.134;24.718;2022-08-19T12:52:36;5.25;;;4.15;;
11829;SDS011;5972;42.134;24.718;2022-08-19T12:55:03;3.92;;;3.53;;
11829;SDS011;5972;42.134;24.718;2022-08-19T12:57:33;4.63;;;3.85;;
11829;SDS011;5972;42.134;24.718;2022-08-19T13:00:02;4.25;;;3.90;;
11829;SDS011;5972;42.134;24.718;2022-08-19T13:02:35;4.30;;;3.90;;
11829;SDS011;5972;42.134;24.718;2022-08-19T13:05:02;4.07;;;3.67;;
11829;SDS011;5972;42.134;24.718;2022-08-19T13:07:31;4.93;;;3.85;;
11829;SDS011;5972;42.134;24.718;2022-08-19T13:09:59;4.80;;;3.65;;
11829;SDS011;5972;42.134;24.718;2022-08-19T13:12:26;5.50;;;3.80;;
11829;SDS011;5972;42.134;24.718;2022-08-19T13:14:53;4.07;;;3.63;;
11829;SDS011;5972;42.134;24.718;2022-08-19T13:17:21;7.65;;;4.05;;
11829;SDS011;5972;42.134;24.718;2022-08-19T13:19:48;5.50;;;4.00;;
11829;SDS011;5972;42.134;24.718;2022-08-19T13:22:15;6.90;;;3.58;;
11829;SDS011;5972;42.134;24.718;2022-08-19T13:24:42;6.75;;;4.07;;
11829;SDS011;5972;42.134;24.718;2022-08-19T13:27:10;5.45;;;3.83;;
11829;SDS011;5972;42.134;24.718;2022-08-19T13:29:39;4.13;;;3.83;;
11829;SDS011;5972;42.134;24.718;2022-08-19T13:32:23;6.63;;;3.90;;
11829;SDS011;5972;42.134;24.718;2022-08-19T13:35:08;5.72;;;4.00;;
11829;SDS011;5972;42.134;24.718;2022-08-19T13:37:35;5.95;;;4.30;;
11829;SDS011;5972;42.134;24.718;2022-08-19T13:40:08;4.47;;;4.10;;
11829;SDS011;5972;42.134;24.718;2022-08-19T13:42:39;6.68;;;3.97;;
11829;SDS011;5972;42.134;24.718;2022-08-19T13:45:06;6.88;;;4.07;;
11829;SDS011;5972;42.134;24.718;2022-08-19T13:47:34;5.55;;;4.03;;
11829;SDS011;5972;42.134;24.718;2022-08-19T13:50:08;4.00;;;3.60;;
11829;SDS011;5972;42.134;24.718;2022-08-19T13:52:36;6.07;;;4.05;;
11829;SDS011;5972;42.134;24.718;2022-08-19T13:55:04;5.35;;;3.83;;
11829;SDS011;5972;42.134;24.718;2022-08-19T13:57:31;5.05;;;3.95;;
11829;SDS011;5972;42.134;24.718;2022-08-19T14:00:00;10.27;;;3.80;;
11829;SDS011;5972;42.134;24.718;2022-08-19T14:02:27;9.38;;;4.00;;
11829;SDS011;5972;42.134;24.718;2022-08-19T14:04:54;5.93;;;4.07;;
11829;SDS011;5972;42.134;24.718;2022-08-19T14:07:21;9.73;;;3.80;;
11829;SDS011;5972;42.134;24.718;2022-08-19T14:09:49;4.47;;;3.83;;
11829;SDS011;5972;42.134;24.718;2022-08-19T14:12:18;8.15;;;4.07;;
11829;SDS011;5972;42.134;24.718;2022-08-19T14:14:45;7.60;;;4.00;;
11829;SDS011;5972;42.134;24.718;2022-08-19T14:17:14;5.80;;;4.40;;
11829;SDS011;5972;42.134;24.718;2022-08-19T14:19:41;6.85;;;4.22;;
11829;SDS011;5972;42.134;24.718;2022-08-19T14:22:08;5.60;;;3.85;;
11829;SDS011;5972;42.134;24.718;2022-08-19T14:24:36;5.20;;;3.95;;
11829;SDS011;5972;42.134;24.718;2022-08-19T14:27:03;4.43;;;4.00;;
11829;SDS011;5972;42.134;24.718;2022-08-19T14:29:31;6.22;;;3.92;;
11829;SDS011;5972;42.134;24.718;2022-08-19T14:31:58;4.30;;;3.90;;
11829;SDS011;5972;42.134;24.718;2022-08-19T14:34:26;4.43;;;3.90;;
11829;SDS011;5972;42.134;24.718;2022-08-19T14:36:53;5.07;;;3.75;;
11829;SDS011;5972;42.134;24.718;2022-08-19T14:39:20;5.72;;;3.90;;
11829;SDS011;5972;42.134;24.718;2022-08-19T14:41:47;6.82;;;3.90;;
11829;SDS011;5972;42.134;24.718;2022-08-19T14:44:14;4.80;;;4.00;;
11829;SDS011;5972;42.134;24.718;2022-08-19T14:46:41;6.40;;;3.90;;
11829;SDS011;5972;42.134;24.718;2022-08-19T14:49:09;9.32;;;4.18;;
11829;SDS011;5972;42.134;24.718;2022-08-19T14:51:37;8.18;;;4.40;;